sensor_id;sensor_type;location;lat;lon;timestamp;P1;durP1;ratioP1;P2;durP2;ratioP2
36715;SDS011;22699;51.034;3.730;2022-09-09T00:04:10;5.47;;;1.70;;
36715;SDS011;22699;51.034;3.730;2022-09-09T00:06:45;1.98;;;1.10;;
36715;SDS011;22699;51.034;3.730;2022-09-09T00:09:25;4.88;;;1.45;;
36715;SDS011;22699;51.034;3.730;2022-09-09T00:12:12;6.03;;;1.98;;
36715;SDS011;22699;51.034;3.730;2022-09-09T00:20:09;6.60;;;1.50;;
36715;SDS011;22699;51.034;3.730;2022-09-09T00:23:03;4.85;;;1.58;;
36715;SDS011;22699;51.034;3.730;2022-09-09T00:25:47;4.18;;;1.10;;
36715;SDS011;22699;51.034;3.730;2022-09-09T00:28:20;3.75;;;1.48;;
36715;SDS011;22699;51.034;3.730;2022-09-09T00:33:17;7.20;;;1.55;;
36715;SDS011;22699;51.034;3.730;2022-09-09T00:35:48;4.10;;;1.00;;
36715;SDS011;22699;51.034;3.730;2022-09-09T00:38:28;7.10;;;1.92;;
36715;SDS011;22699;51.034;3.730;2022-09-09T00:41:09;6.38;;;1.80;;
36715;SDS011;22699;51.034;3.730;2022-09-09T00:43:40;4.20;;;1.40;;
36715;SDS011;22699;51.034;3.730;2022-09-09T00:51:41;5.18;;;1.80;;
36715;SDS011;22699;51.034;3.730;2022-09-09T00:57:06;6.93;;;1.40;;
36715;SDS011;22699;51.034;3.730;2022-09-09T01:05:46;3.45;;;1.20;;
36715;SDS011;22699;51.034;3.730;2022-09-09T01:11:24;6.22;;;1.40;;
36715;SDS011;22699;51.034;3.730;2022-09-09T01:13:55;4.80;;;1.38;;
36715;SDS011;22699;51.034;3.730;2022-09-09T01:16:27;7.10;;;1.60;;
36715;SDS011;22699;51.034;3.730;2022-09-09T01:18:56;5.72;;;1.20;;
36715;SDS011;22699;51.034;3.730;2022-09-09T01:24:08;2.92;;;1.10;;
36715;SDS011;22699;51.034;3.730;2022-09-09T01:26:42;5.10;;;1.13;;
36715;SDS011;22699;51.034;3.730;2022-09-09T01:29:11;3.85;;;1.00;;
36715;SDS011;22699;51.034;3.730;2022-09-09T01:31:40;3.78;;;1.10;;
36715;SDS011;22699;51.034;3.730;2022-09-09T01:34:14;6.50;;;1.40;;
36715;SDS011;22699;51.034;3.730;2022-09-09T01:39:16;6.78;;;1.30;;
36715;SDS011;22699;51.034;3.730;2022-09-09T01:41:42;3.15;;;1.17;;
36715;SDS011;22699;51.034;3.730;2022-09-09T01:44:08;3.65;;;1.20;;
36715;SDS011;22699;51.034;3.730;2022-09-09T01:46:34;3.70;;;1.10;;
36715;SDS011;22699;51.034;3.730;2022-09-09T01:49:00;6.22;;;1.38;;
36715;SDS011;22699;51.034;3.730;2022-09-09T01:51:29;3.15;;;1.20;;
36715;SDS011;22699;51.034;3.730;2022-09-09T01:53:55;6.82;;;1.40;;
36715;SDS011;22699;51.034;3.730;2022-09-09T01:56:25;10.23;;;1.75;;
36715;SDS011;22699;51.034;3.730;2022-09-09T01:59:17;8.38;;;1.42;;
36715;SDS011;22699;51.034;3.730;2022-09-09T02:07:26;5.70;;;1.42;;
36715;SDS011;22699;51.034;3.730;2022-09-09T02:09:58;5.25;;;2.10;;
36715;SDS011;22699;51.034;3.730;2022-09-09T02:12:33;4.75;;;1.30;;
36715;SDS011;22699;51.034;3.730;2022-09-09T02:15:03;8.25;;;1.90;;
36715;SDS011;22699;51.034;3.730;2022-09-09T02:17:38;4.63;;;1.58;;
36715;SDS011;22699;51.034;3.730;2022-09-09T02:20:07;4.72;;;1.63;;
36715;SDS011;22699;51.034;3.730;2022-09-09T02:22:37;9.52;;;1.70;;
36715;SDS011;22699;51.034;3.730;2022-09-09T02:25:06;6.43;;;1.63;;
36715;SDS011;22699;51.034;3.730;2022-09-09T02:27:35;6.63;;;2.40;;
36715;SDS011;22699;51.034;3.730;2022-09-09T02:30:01;11.27;;;1.90;;
36715;SDS011;22699;51.034;3.730;2022-09-09T02:35:03;8.82;;;1.83;;
36715;SDS011;22699;51.034;3.730;2022-09-09T02:37:37;7.53;;;2.00;;
36715;SDS011;22699;51.034;3.730;2022-09-09T02:40:08;7.20;;;1.77;;
36715;SDS011;22699;51.034;3.730;2022-09-09T02:42:43;8.23;;;1.73;;
36715;SDS011;22699;51.034;3.730;2022-09-09T02:45:11;7.20;;;1.58;;
36715;SDS011;22699;51.034;3.730;2022-09-09T02:53:47;8.95;;;1.60;;
36715;SDS011;22699;51.034;3.730;2022-09-09T02:56:39;7.18;;;2.30;;
36715;SDS011;22699;51.034;3.730;2022-09-09T03:04:10;5.53;;;1.52;;
36715;SDS011;22699;51.034;3.730;2022-09-09T03:06:35;11.02;;;1.80;;
36715;SDS011;22699;51.034;3.730;2022-09-09T03:09:01;6.47;;;1.85;;
36715;SDS011;22699;51.034;3.730;2022-09-09T03:11:29;9.40;;;2.63;;
36715;SDS011;22699;51.034;3.730;2022-09-09T03:13:56;7.28;;;2.08;;
36715;SDS011;22699;51.034;3.730;2022-09-09T03:16:22;9.00;;;2.20;;
36715;SDS011;22699;51.034;3.730;2022-09-09T03:18:51;10.75;;;1.63;;
36715;SDS011;22699;51.034;3.730;2022-09-09T03:21:34;7.72;;;2.13;;
36715;SDS011;22699;51.034;3.730;2022-09-09T03:24:01;11.77;;;2.00;;
36715;SDS011;22699;51.034;3.730;2022-09-09T03:26:29;10.52;;;2.10;;
36715;SDS011;22699;51.034;3.730;2022-09-09T03:28:56;10.02;;;2.08;;
36715;SDS011;22699;51.034;3.730;2022-09-09T03:31:22;10.93;;;2.40;;
36715;SDS011;22699;51.034;3.730;2022-09-09T03:33:57;11.02;;;2.17;;
36715;SDS011;22699;51.034;3.730;2022-09-09T03:36:23;6.45;;;1.95;;
36715;SDS011;22699;51.034;3.730;2022-09-09T03:38:51;10.35;;;2.97;;
36715;SDS011;22699;51.034;3.730;2022-09-09T03:41:20;8.07;;;2.30;;
36715;SDS011;22699;51.034;3.730;2022-09-09T03:43:50;13.13;;;2.70;;
36715;SDS011;22699;51.034;3.730;2022-09-09T03:46:28;9.80;;;1.92;;
36715;SDS011;22699;51.034;3.730;2022-09-09T03:48:54;13.50;;;1.85;;
36715;SDS011;22699;51.034;3.730;2022-09-09T03:51:23;5.25;;;1.80;;
36715;SDS011;22699;51.034;3.730;2022-09-09T03:54:01;11.93;;;1.85;;
36715;SDS011;22699;51.034;3.730;2022-09-09T03:56:30;9.70;;;2.53;;
36715;SDS011;22699;51.034;3.730;2022-09-09T03:59:04;8.43;;;2.40;;
36715;SDS011;22699;51.034;3.730;2022-09-09T04:01:34;13.02;;;2.30;;
36715;SDS011;22699;51.034;3.730;2022-09-09T04:04:08;12.75;;;2.47;;
36715;SDS011;22699;51.034;3.730;2022-09-09T04:09:33;10.35;;;2.05;;
36715;SDS011;22699;51.034;3.730;2022-09-09T04:12:00;10.75;;;2.20;;
36715;SDS011;22699;51.034;3.730;2022-09-09T04:14:27;10.93;;;2.58;;
36715;SDS011;22699;51.034;3.730;2022-09-09T04:16:55;9.88;;;1.80;;
36715;SDS011;22699;51.034;3.730;2022-09-09T04:22:20;8.93;;;2.13;;
36715;SDS011;22699;51.034;3.730;2022-09-09T04:24:50;12.02;;;3.30;;
36715;SDS011;22699;51.034;3.730;2022-09-09T04:27:25;10.73;;;2.20;;
36715;SDS011;22699;51.034;3.730;2022-09-09T04:29:53;15.80;;;2.97;;
36715;SDS011;22699;51.034;3.730;2022-09-09T04:32:20;11.82;;;2.33;;
36715;SDS011;22699;51.034;3.730;2022-09-09T04:34:47;11.20;;;2.05;;
36715;SDS011;22699;51.034;3.730;2022-09-09T04:37:19;10.93;;;2.10;;
36715;SDS011;22699;51.034;3.730;2022-09-09T04:39:45;9.23;;;2.03;;
36715;SDS011;22699;51.034;3.730;2022-09-09T04:42:11;9.50;;;2.22;;
36715;SDS011;22699;51.034;3.730;2022-09-09T04:44:38;11.00;;;1.75;;
36715;SDS011;22699;51.034;3.730;2022-09-09T04:47:06;9.52;;;2.03;;
36715;SDS011;22699;51.034;3.730;2022-09-09T04:49:34;11.00;;;2.50;;
36715;SDS011;22699;51.034;3.730;2022-09-09T04:52:00;9.88;;;1.95;;
36715;SDS011;22699;51.034;3.730;2022-09-09T04:54:28;8.93;;;1.92;;
36715;SDS011;22699;51.034;3.730;2022-09-09T04:57:03;9.02;;;2.33;;
36715;SDS011;22699;51.034;3.730;2022-09-09T04:59:28;11.65;;;2.58;;
36715;SDS011;22699;51.034;3.730;2022-09-09T05:01:55;12.88;;;2.72;;
36715;SDS011;22699;51.034;3.730;2022-09-09T05:04:21;8.57;;;2.20;;
36715;SDS011;22699;51.034;3.730;2022-09-09T05:06:48;7.40;;;2.40;;
36715;SDS011;22699;51.034;3.730;2022-09-09T05:09:14;11.77;;;2.35;;
36715;SDS011;22699;51.034;3.730;2022-09-09T05:11:43;9.55;;;2.17;;
36715;SDS011;22699;51.034;3.730;2022-09-09T05:14:10;8.35;;;2.40;;
36715;SDS011;22699;51.034;3.730;2022-09-09T05:16:37;8.82;;;3.10;;
36715;SDS011;22699;51.034;3.730;2022-09-09T05:19:04;8.93;;;2.50;;
36715;SDS011;22699;51.034;3.730;2022-09-09T05:21:29;10.15;;;2.75;;
36715;SDS011;22699;51.034;3.730;2022-09-09T05:23:56;10.35;;;2.75;;
36715;SDS011;22699;51.034;3.730;2022-09-09T05:26:22;9.60;;;2.75;;
36715;SDS011;22699;51.034;3.730;2022-09-09T05:28:49;13.05;;;3.30;;
36715;SDS011;22699;51.034;3.730;2022-09-09T05:31:15;11.52;;;2.47;;
36715;SDS011;22699;51.034;3.730;2022-09-09T05:33:43;11.75;;;2.55;;
36715;SDS011;22699;51.034;3.730;2022-09-09T05:36:14;10.68;;;3.15;;
36715;SDS011;22699;51.034;3.730;2022-09-09T05:38:44;13.23;;;3.38;;
36715;SDS011;22699;51.034;3.730;2022-09-09T05:41:10;13.38;;;2.58;;
36715;SDS011;22699;51.034;3.730;2022-09-09T05:43:37;13.30;;;2.13;;
36715;SDS011;22699;51.034;3.730;2022-09-09T05:46:05;9.68;;;2.83;;
36715;SDS011;22699;51.034;3.730;2022-09-09T05:48:39;11.32;;;2.30;;
36715;SDS011;22699;51.034;3.730;2022-09-09T05:51:12;9.88;;;2.33;;
36715;SDS011;22699;51.034;3.730;2022-09-09T05:53:42;7.32;;;2.22;;
36715;SDS011;22699;51.034;3.730;2022-09-09T05:56:11;9.90;;;2.10;;
36715;SDS011;22699;51.034;3.730;2022-09-09T05:58:48;11.40;;;2.65;;
36715;SDS011;22699;51.034;3.730;2022-09-09T06:01:22;11.82;;;2.15;;
36715;SDS011;22699;51.034;3.730;2022-09-09T06:03:52;8.57;;;2.50;;
36715;SDS011;22699;51.034;3.730;2022-09-09T06:06:19;6.00;;;2.05;;
36715;SDS011;22699;51.034;3.730;2022-09-09T06:08:54;14.55;;;2.50;;
36715;SDS011;22699;51.034;3.730;2022-09-09T06:11:28;12.70;;;2.45;;
36715;SDS011;22699;51.034;3.730;2022-09-09T06:13:59;7.35;;;2.42;;
36715;SDS011;22699;51.034;3.730;2022-09-09T06:16:26;12.43;;;2.58;;
36715;SDS011;22699;51.034;3.730;2022-09-09T06:18:53;13.38;;;2.90;;
36715;SDS011;22699;51.034;3.730;2022-09-09T06:21:23;9.75;;;2.35;;
36715;SDS011;22699;51.034;3.730;2022-09-09T06:26:24;7.05;;;2.38;;
36715;SDS011;22699;51.034;3.730;2022-09-09T06:28:53;11.75;;;3.63;;
36715;SDS011;22699;51.034;3.730;2022-09-09T06:31:21;14.27;;;2.97;;
36715;SDS011;22699;51.034;3.730;2022-09-09T06:33:49;13.32;;;3.25;;
36715;SDS011;22699;51.034;3.730;2022-09-09T06:36:17;15.85;;;2.80;;
36715;SDS011;22699;51.034;3.730;2022-09-09T06:38:44;10.38;;;2.75;;
36715;SDS011;22699;51.034;3.730;2022-09-09T06:41:11;13.95;;;3.13;;
36715;SDS011;22699;51.034;3.730;2022-09-09T06:43:38;12.90;;;2.38;;
36715;SDS011;22699;51.034;3.730;2022-09-09T06:51:20;13.07;;;2.88;;
36715;SDS011;22699;51.034;3.730;2022-09-09T06:53:49;9.32;;;2.60;;
36715;SDS011;22699;51.034;3.730;2022-09-09T06:58:41;12.35;;;3.38;;
36715;SDS011;22699;51.034;3.730;2022-09-09T07:01:11;9.60;;;2.40;;
36715;SDS011;22699;51.034;3.730;2022-09-09T07:03:41;9.45;;;1.88;;
36715;SDS011;22699;51.034;3.730;2022-09-09T07:06:13;8.70;;;1.92;;
36715;SDS011;22699;51.034;3.730;2022-09-09T07:08:42;10.68;;;2.42;;
36715;SDS011;22699;51.034;3.730;2022-09-09T07:11:17;9.90;;;1.85;;
36715;SDS011;22699;51.034;3.730;2022-09-09T07:13:45;16.63;;;2.70;;
36715;SDS011;22699;51.034;3.730;2022-09-09T07:16:14;8.93;;;1.85;;
36715;SDS011;22699;51.034;3.730;2022-09-09T07:18:42;12.93;;;2.17;;
36715;SDS011;22699;51.034;3.730;2022-09-09T07:21:10;11.93;;;2.30;;
36715;SDS011;22699;51.034;3.730;2022-09-09T07:23:37;6.00;;;1.80;;
36715;SDS011;22699;51.034;3.730;2022-09-09T07:26:14;14.88;;;3.08;;
36715;SDS011;22699;51.034;3.730;2022-09-09T07:28:42;6.72;;;1.83;;
36715;SDS011;22699;51.034;3.730;2022-09-09T07:31:15;16.10;;;2.78;;
36715;SDS011;22699;51.034;3.730;2022-09-09T07:33:57;12.20;;;2.08;;
36715;SDS011;22699;51.034;3.730;2022-09-09T07:36:28;7.55;;;1.90;;
36715;SDS011;22699;51.034;3.730;2022-09-09T07:38:57;9.98;;;2.17;;
36715;SDS011;22699;51.034;3.730;2022-09-09T07:41:29;9.38;;;2.15;;
36715;SDS011;22699;51.034;3.730;2022-09-09T07:44:07;8.80;;;1.90;;
36715;SDS011;22699;51.034;3.730;2022-09-09T07:46:34;7.50;;;1.92;;
36715;SDS011;22699;51.034;3.730;2022-09-09T07:49:02;10.07;;;1.95;;
36715;SDS011;22699;51.034;3.730;2022-09-09T07:51:32;6.65;;;1.80;;
36715;SDS011;22699;51.034;3.730;2022-09-09T07:54:05;9.30;;;2.00;;
36715;SDS011;22699;51.034;3.730;2022-09-09T07:56:32;8.75;;;1.80;;
36715;SDS011;22699;51.034;3.730;2022-09-09T07:59:01;8.45;;;1.95;;
36715;SDS011;22699;51.034;3.730;2022-09-09T08:01:39;6.75;;;1.70;;
36715;SDS011;22699;51.034;3.730;2022-09-09T08:04:09;7.43;;;1.95;;
36715;SDS011;22699;51.034;3.730;2022-09-09T08:06:41;10.70;;;2.38;;
36715;SDS011;22699;51.034;3.730;2022-09-09T08:09:09;9.15;;;1.80;;
36715;SDS011;22699;51.034;3.730;2022-09-09T08:11:37;9.48;;;1.88;;
36715;SDS011;22699;51.034;3.730;2022-09-09T08:14:05;9.98;;;1.88;;
36715;SDS011;22699;51.034;3.730;2022-09-09T08:16:45;8.88;;;2.30;;
36715;SDS011;22699;51.034;3.730;2022-09-09T08:19:19;9.43;;;2.25;;
36715;SDS011;22699;51.034;3.730;2022-09-09T08:21:46;12.05;;;2.40;;
36715;SDS011;22699;51.034;3.730;2022-09-09T08:24:15;14.45;;;2.63;;
36715;SDS011;22699;51.034;3.730;2022-09-09T08:26:43;9.65;;;2.63;;
36715;SDS011;22699;51.034;3.730;2022-09-09T08:29:10;9.18;;;2.05;;
36715;SDS011;22699;51.034;3.730;2022-09-09T08:31:41;8.68;;;2.22;;
36715;SDS011;22699;51.034;3.730;2022-09-09T08:34:09;11.07;;;2.13;;
36715;SDS011;22699;51.034;3.730;2022-09-09T08:36:37;6.25;;;1.20;;
36715;SDS011;22699;51.034;3.730;2022-09-09T08:39:10;8.98;;;1.80;;
36715;SDS011;22699;51.034;3.730;2022-09-09T08:41:40;8.60;;;1.80;;
36715;SDS011;22699;51.034;3.730;2022-09-09T08:58:13;7.07;;;1.60;;
36715;SDS011;22699;51.034;3.730;2022-09-09T09:03:43;7.03;;;1.58;;
36715;SDS011;22699;51.034;3.730;2022-09-09T09:11:54;4.80;;;1.63;;
36715;SDS011;22699;51.034;3.730;2022-09-09T09:14:30;4.90;;;1.52;;
36715;SDS011;22699;51.034;3.730;2022-09-09T09:17:04;5.70;;;1.70;;
36715;SDS011;22699;51.034;3.730;2022-09-09T09:19:31;6.60;;;1.70;;
36715;SDS011;22699;51.034;3.730;2022-09-09T09:24:44;6.50;;;1.63;;
36715;SDS011;22699;51.034;3.730;2022-09-09T09:27:15;6.72;;;1.88;;
36715;SDS011;22699;51.034;3.730;2022-09-09T09:29:45;8.55;;;1.75;;
36715;SDS011;22699;51.034;3.730;2022-09-09T09:32:15;5.63;;;1.55;;
36715;SDS011;22699;51.034;3.730;2022-09-09T09:34:48;6.07;;;1.55;;
36715;SDS011;22699;51.034;3.730;2022-09-09T09:37:31;6.28;;;1.38;;
36715;SDS011;22699;51.034;3.730;2022-09-09T09:40:13;3.40;;;1.20;;
36715;SDS011;22699;51.034;3.730;2022-09-09T09:43:16;8.10;;;1.75;;
36715;SDS011;22699;51.034;3.730;2022-09-09T09:45:44;6.97;;;1.50;;
36715;SDS011;22699;51.034;3.730;2022-09-09T09:48:11;7.43;;;2.10;;
36715;SDS011;22699;51.034;3.730;2022-09-09T09:53:21;3.30;;;1.35;;
36715;SDS011;22699;51.034;3.730;2022-09-09T09:55:54;6.30;;;1.83;;
36715;SDS011;22699;51.034;3.730;2022-09-09T09:58:32;6.35;;;1.63;;
36715;SDS011;22699;51.034;3.730;2022-09-09T10:01:25;3.05;;;1.52;;
36715;SDS011;22699;51.034;3.730;2022-09-09T10:04:02;4.97;;;1.38;;
36715;SDS011;22699;51.034;3.730;2022-09-09T10:06:41;5.10;;;1.30;;
36715;SDS011;22699;51.034;3.730;2022-09-09T10:09:23;4.63;;;1.52;;
36715;SDS011;22699;51.034;3.730;2022-09-09T10:17:33;2.85;;;1.20;;
36715;SDS011;22699;51.034;3.730;2022-09-09T10:20:22;4.55;;;1.33;;
36715;SDS011;22699;51.034;3.730;2022-09-09T10:29:04;5.22;;;1.30;;
36715;SDS011;22699;51.034;3.730;2022-09-09T10:34:58;4.50;;;1.15;;
36715;SDS011;22699;51.034;3.730;2022-09-09T10:40:34;5.82;;;1.42;;
36715;SDS011;22699;51.034;3.730;2022-09-09T10:46:34;6.80;;;1.33;;
36715;SDS011;22699;51.034;3.730;2022-09-09T10:52:09;5.53;;;1.10;;
36715;SDS011;22699;51.034;3.730;2022-09-09T10:55:15;9.90;;;1.65;;
36715;SDS011;22699;51.034;3.730;2022-09-09T10:57:50;5.53;;;1.20;;
36715;SDS011;22699;51.034;3.730;2022-09-09T11:00:51;5.13;;;1.35;;
36715;SDS011;22699;51.034;3.730;2022-09-09T11:03:17;4.75;;;1.20;;
36715;SDS011;22699;51.034;3.730;2022-09-09T11:05:56;4.83;;;0.90;;
36715;SDS011;22699;51.034;3.730;2022-09-09T11:08:28;3.63;;;1.15;;
36715;SDS011;22699;51.034;3.730;2022-09-09T11:18:51;3.85;;;0.95;;
36715;SDS011;22699;51.034;3.730;2022-09-09T11:21:27;5.00;;;1.20;;
36715;SDS011;22699;51.034;3.730;2022-09-09T11:24:10;4.10;;;1.05;;
36715;SDS011;22699;51.034;3.730;2022-09-09T11:26:47;4.60;;;1.00;;
36715;SDS011;22699;51.034;3.730;2022-09-09T11:29:26;3.47;;;0.80;;
36715;SDS011;22699;51.034;3.730;2022-09-09T11:40:44;2.40;;;0.88;;
36715;SDS011;22699;51.034;3.730;2022-09-09T11:43:12;9.57;;;0.93;;
36715;SDS011;22699;51.034;3.730;2022-09-09T11:45:39;5.63;;;1.10;;
36715;SDS011;22699;51.034;3.730;2022-09-09T11:48:58;2.55;;;0.73;;
36715;SDS011;22699;51.034;3.730;2022-09-09T11:51:02;3.00;;;1.42;;
36715;SDS011;22699;51.034;3.730;2022-09-09T11:53:30;2.60;;;0.82;;
36715;SDS011;22699;51.034;3.730;2022-09-09T11:56:00;3.35;;;1.00;;
36715;SDS011;22699;51.034;3.730;2022-09-09T11:58:27;3.72;;;0.88;;
36715;SDS011;22699;51.034;3.730;2022-09-09T12:00:57;3.25;;;0.90;;
36715;SDS011;22699;51.034;3.730;2022-09-09T12:06:17;3.78;;;0.88;;
36715;SDS011;22699;51.034;3.730;2022-09-09T12:08:51;5.72;;;1.58;;
36715;SDS011;22699;51.034;3.730;2022-09-09T12:11:27;1.88;;;0.70;;
36715;SDS011;22699;51.034;3.730;2022-09-09T12:13:56;3.95;;;1.02;;
36715;SDS011;22699;51.034;3.730;2022-09-09T12:16:33;3.78;;;1.10;;
36715;SDS011;22699;51.034;3.730;2022-09-09T12:19:04;3.67;;;1.10;;
36715;SDS011;22699;51.034;3.730;2022-09-09T12:24:11;2.75;;;0.90;;
36715;SDS011;22699;51.034;3.730;2022-09-09T12:29:51;5.28;;;1.00;;
36715;SDS011;22699;51.034;3.730;2022-09-09T12:32:22;3.60;;;1.17;;
36715;SDS011;22699;51.034;3.730;2022-09-09T12:34:54;2.85;;;0.80;;
36715;SDS011;22699;51.034;3.730;2022-09-09T12:40:05;4.93;;;0.98;;
36715;SDS011;22699;51.034;3.730;2022-09-09T12:42:43;3.05;;;0.90;;
36715;SDS011;22699;51.034;3.730;2022-09-09T12:45:16;1.48;;;0.80;;
36715;SDS011;22699;51.034;3.730;2022-09-09T12:47:45;3.42;;;0.90;;
36715;SDS011;22699;51.034;3.730;2022-09-09T12:50:21;2.88;;;0.98;;
36715;SDS011;22699;51.034;3.730;2022-09-09T12:52:52;2.90;;;0.90;;
36715;SDS011;22699;51.034;3.730;2022-09-09T12:55:31;3.20;;;1.00;;
36715;SDS011;22699;51.034;3.730;2022-09-09T12:58:00;3.33;;;1.10;;
36715;SDS011;22699;51.034;3.730;2022-09-09T13:00:29;4.53;;;1.00;;
36715;SDS011;22699;51.034;3.730;2022-09-09T13:02:57;8.57;;;1.40;;
36715;SDS011;22699;51.034;3.730;2022-09-09T13:05:34;4.13;;;1.40;;
36715;SDS011;22699;51.034;3.730;2022-09-09T13:08:05;4.55;;;0.98;;
36715;SDS011;22699;51.034;3.730;2022-09-09T13:10:43;7.95;;;1.20;;
36715;SDS011;22699;51.034;3.730;2022-09-09T13:13:23;3.72;;;1.13;;
36715;SDS011;22699;51.034;3.730;2022-09-09T13:15:56;4.30;;;1.23;;
36715;SDS011;22699;51.034;3.730;2022-09-09T13:18:24;3.42;;;1.00;;
36715;SDS011;22699;51.034;3.730;2022-09-09T13:21:01;4.80;;;1.50;;
36715;SDS011;22699;51.034;3.730;2022-09-09T13:23:31;2.38;;;0.77;;
36715;SDS011;22699;51.034;3.730;2022-09-09T13:26:00;5.20;;;1.33;;
36715;SDS011;22699;51.034;3.730;2022-09-09T13:28:31;10.05;;;1.33;;
36715;SDS011;22699;51.034;3.730;2022-09-09T13:31:05;2.97;;;1.05;;
36715;SDS011;22699;51.034;3.730;2022-09-09T13:33:44;2.90;;;1.00;;
36715;SDS011;22699;51.034;3.730;2022-09-09T13:36:10;3.35;;;0.70;;
36715;SDS011;22699;51.034;3.730;2022-09-09T13:38:59;3.78;;;1.10;;
36715;SDS011;22699;51.034;3.730;2022-09-09T13:41:25;3.40;;;1.08;;
36715;SDS011;22699;51.034;3.730;2022-09-09T13:44:14;5.63;;;1.13;;
36715;SDS011;22699;51.034;3.730;2022-09-09T13:46:59;5.97;;;1.65;;
36715;SDS011;22699;51.034;3.730;2022-09-09T13:49:45;2.70;;;0.70;;
36715;SDS011;22699;51.034;3.730;2022-09-09T13:52:16;2.00;;;0.70;;
36715;SDS011;22699;51.034;3.730;2022-09-09T13:54:50;7.50;;;1.23;;
36715;SDS011;22699;51.034;3.730;2022-09-09T13:57:21;3.15;;;0.65;;
36715;SDS011;22699;51.034;3.730;2022-09-09T13:59:50;2.10;;;0.75;;
36715;SDS011;22699;51.034;3.730;2022-09-09T14:02:17;2.53;;;1.23;;
36715;SDS011;22699;51.034;3.730;2022-09-09T14:04:43;4.25;;;1.08;;
36715;SDS011;22699;51.034;3.730;2022-09-09T14:07:13;2.78;;;0.80;;
36715;SDS011;22699;51.034;3.730;2022-09-09T14:09:40;5.72;;;1.73;;
36715;SDS011;22699;51.034;3.730;2022-09-09T14:12:10;3.50;;;0.90;;
36715;SDS011;22699;51.034;3.730;2022-09-09T14:14:36;5.38;;;0.93;;
36715;SDS011;22699;51.034;3.730;2022-09-09T14:17:02;2.65;;;1.50;;
36715;SDS011;22699;51.034;3.730;2022-09-09T14:19:29;4.30;;;1.00;;
36715;SDS011;22699;51.034;3.730;2022-09-09T14:21:57;4.03;;;1.50;;
36715;SDS011;22699;51.034;3.730;2022-09-09T14:24:23;4.53;;;1.02;;
36715;SDS011;22699;51.034;3.730;2022-09-09T14:26:48;4.45;;;1.20;;
36715;SDS011;22699;51.034;3.730;2022-09-09T14:29:14;3.20;;;0.98;;
36715;SDS011;22699;51.034;3.730;2022-09-09T14:31:39;5.03;;;1.35;;
36715;SDS011;22699;51.034;3.730;2022-09-09T14:34:05;2.70;;;0.70;;
36715;SDS011;22699;51.034;3.730;2022-09-09T14:36:31;1.98;;;1.02;;
36715;SDS011;22699;51.034;3.730;2022-09-09T14:38:57;3.63;;;1.05;;
36715;SDS011;22699;51.034;3.730;2022-09-09T14:41:23;2.15;;;1.05;;
36715;SDS011;22699;51.034;3.730;2022-09-09T14:43:50;2.45;;;1.10;;
36715;SDS011;22699;51.034;3.730;2022-09-09T14:46:17;2.42;;;0.90;;
36715;SDS011;22699;51.034;3.730;2022-09-09T14:48:44;2.17;;;0.95;;
36715;SDS011;22699;51.034;3.730;2022-09-09T14:51:11;4.80;;;0.98;;
36715;SDS011;22699;51.034;3.730;2022-09-09T14:53:41;1.90;;;0.68;;
36715;SDS011;22699;51.034;3.730;2022-09-09T14:56:09;2.25;;;0.80;;
36715;SDS011;22699;51.034;3.730;2022-09-09T14:58:39;2.63;;;0.80;;
36715;SDS011;22699;51.034;3.730;2022-09-09T15:01:06;5.68;;;0.93;;
36715;SDS011;22699;51.034;3.730;2022-09-09T15:03:37;1.90;;;0.80;;
36715;SDS011;22699;51.034;3.730;2022-09-09T15:06:08;3.53;;;0.60;;
36715;SDS011;22699;51.034;3.730;2022-09-09T15:08:36;2.58;;;0.80;;
36715;SDS011;22699;51.034;3.730;2022-09-09T15:11:03;4.07;;;0.55;;
36715;SDS011;22699;51.034;3.730;2022-09-09T15:13:32;3.50;;;0.85;;
36715;SDS011;22699;51.034;3.730;2022-09-09T15:16:11;4.03;;;1.08;;
36715;SDS011;22699;51.034;3.730;2022-09-09T15:18:39;3.92;;;0.82;;
36715;SDS011;22699;51.034;3.730;2022-09-09T15:21:11;3.00;;;0.60;;
36715;SDS011;22699;51.034;3.730;2022-09-09T15:23:39;3.63;;;0.60;;
36715;SDS011;22699;51.034;3.730;2022-09-09T15:26:05;3.30;;;0.50;;
36715;SDS011;22699;51.034;3.730;2022-09-09T15:28:35;1.88;;;0.70;;
36715;SDS011;22699;51.034;3.730;2022-09-09T15:31:12;2.40;;;0.70;;
36715;SDS011;22699;51.034;3.730;2022-09-09T15:36:22;4.07;;;1.10;;
36715;SDS011;22699;51.034;3.730;2022-09-09T15:38:50;5.10;;;1.05;;
36715;SDS011;22699;51.034;3.730;2022-09-09T15:41:16;1.90;;;0.60;;
36715;SDS011;22699;51.034;3.730;2022-09-09T15:43:44;4.60;;;1.00;;
36715;SDS011;22699;51.034;3.730;2022-09-09T15:48:42;4.40;;;1.00;;
36715;SDS011;22699;51.034;3.730;2022-09-09T15:51:10;2.88;;;1.17;;
36715;SDS011;22699;51.034;3.730;2022-09-09T15:53:36;2.55;;;0.85;;
36715;SDS011;22699;51.034;3.730;2022-09-09T15:56:04;5.15;;;1.10;;
36715;SDS011;22699;51.034;3.730;2022-09-09T15:58:32;3.25;;;1.00;;
36715;SDS011;22699;51.034;3.730;2022-09-09T16:01:16;5.88;;;1.10;;
36715;SDS011;22699;51.034;3.730;2022-09-09T16:03:41;3.85;;;1.38;;
36715;SDS011;22699;51.034;3.730;2022-09-09T16:06:08;2.05;;;0.90;;
36715;SDS011;22699;51.034;3.730;2022-09-09T16:08:35;5.75;;;1.05;;
36715;SDS011;22699;51.034;3.730;2022-09-09T16:11:09;4.03;;;1.00;;
36715;SDS011;22699;51.034;3.730;2022-09-09T16:13:39;4.05;;;1.02;;
36715;SDS011;22699;51.034;3.730;2022-09-09T16:16:06;5.03;;;1.20;;
36715;SDS011;22699;51.034;3.730;2022-09-09T16:18:34;4.68;;;1.10;;
36715;SDS011;22699;51.034;3.730;2022-09-09T16:21:08;4.22;;;1.10;;
36715;SDS011;22699;51.034;3.730;2022-09-09T16:23:40;4.32;;;0.98;;
36715;SDS011;22699;51.034;3.730;2022-09-09T16:26:06;4.43;;;1.00;;
36715;SDS011;22699;51.034;3.730;2022-09-09T16:28:34;2.55;;;1.00;;
36715;SDS011;22699;51.034;3.730;2022-09-09T16:31:03;4.00;;;1.33;;
36715;SDS011;22699;51.034;3.730;2022-09-09T16:33:34;4.30;;;1.50;;
36715;SDS011;22699;51.034;3.730;2022-09-09T16:36:04;5.32;;;1.50;;
36715;SDS011;22699;51.034;3.730;2022-09-09T16:38:31;4.72;;;1.45;;
36715;SDS011;22699;51.034;3.730;2022-09-09T16:40:58;4.82;;;1.90;;
36715;SDS011;22699;51.034;3.730;2022-09-09T16:43:25;4.20;;;1.30;;
36715;SDS011;22699;51.034;3.730;2022-09-09T16:45:51;5.13;;;1.50;;
36715;SDS011;22699;51.034;3.730;2022-09-09T16:48:16;3.28;;;1.20;;
36715;SDS011;22699;51.034;3.730;2022-09-09T16:50:42;6.45;;;1.48;;
36715;SDS011;22699;51.034;3.730;2022-09-09T16:53:07;2.63;;;1.17;;
36715;SDS011;22699;51.034;3.730;2022-09-09T16:55:38;6.25;;;1.45;;
36715;SDS011;22699;51.034;3.730;2022-09-09T16:58:05;5.03;;;1.98;;
36715;SDS011;22699;51.034;3.730;2022-09-09T17:00:31;3.85;;;1.70;;
36715;SDS011;22699;51.034;3.730;2022-09-09T17:02:57;6.22;;;2.05;;
36715;SDS011;22699;51.034;3.730;2022-09-09T17:05:24;7.90;;;1.88;;
36715;SDS011;22699;51.034;3.730;2022-09-09T17:07:50;4.90;;;1.50;;
36715;SDS011;22699;51.034;3.730;2022-09-09T17:10:19;6.35;;;1.65;;
36715;SDS011;22699;51.034;3.730;2022-09-09T17:12:45;4.15;;;1.23;;
36715;SDS011;22699;51.034;3.730;2022-09-09T17:15:11;6.05;;;1.50;;
36715;SDS011;22699;51.034;3.730;2022-09-09T17:17:36;4.63;;;1.40;;
36715;SDS011;22699;51.034;3.730;2022-09-09T17:20:03;5.35;;;1.90;;
36715;SDS011;22699;51.034;3.730;2022-09-09T17:22:31;4.88;;;1.52;;
36715;SDS011;22699;51.034;3.730;2022-09-09T17:24:57;4.40;;;1.20;;
36715;SDS011;22699;51.034;3.730;2022-09-09T17:27:23;7.15;;;1.60;;
36715;SDS011;22699;51.034;3.730;2022-09-09T17:29:49;9.73;;;2.00;;
36715;SDS011;22699;51.034;3.730;2022-09-09T17:32:14;7.80;;;2.10;;
36715;SDS011;22699;51.034;3.730;2022-09-09T17:34:40;5.65;;;1.73;;
36715;SDS011;22699;51.034;3.730;2022-09-09T17:37:06;3.67;;;1.58;;
36715;SDS011;22699;51.034;3.730;2022-09-09T17:39:32;7.45;;;1.70;;
36715;SDS011;22699;51.034;3.730;2022-09-09T17:41:58;5.93;;;1.50;;